sensor_id;sensor_type;location;lat;lon;timestamp;temperature;humidity
65470;DHT22;52067;50.710;14.492;2022-09-14T00:00:26;12.85;88.09
65470;DHT22;52067;50.710;14.492;2022-09-14T00:02:53;12.88;87.35
65470;DHT22;52067;50.710;14.492;2022-09-14T00:05:18;12.98;87.08
65470;DHT22;52067;50.710;14.492;2022-09-14T00:07:44;12.99;86.72
65470;DHT22;52067;50.710;14.492;2022-09-14T00:10:09;12.92;86.92
65470;DHT22;52067;50.710;14.492;2022-09-14T00:12:34;12.87;87.10
65470;DHT22;52067;50.710;14.492;2022-09-14T00:15:00;12.87;87.06
65470;DHT22;52067;50.710;14.492;2022-09-14T00:17:25;12.77;87.49
65470;DHT22;52067;50.710;14.492;2022-09-14T00:19:51;12.57;88.46
65470;DHT22;52067;50.710;14.492;2022-09-14T00:22:17;12.56;88.54
65470;DHT22;52067;50.710;14.492;2022-09-14T00:24:43;12.57;88.72
65470;DHT22;52067;50.710;14.492;2022-09-14T00:27:08;12.22;89.80
65470;DHT22;52067;50.710;14.492;2022-09-14T00:29:35;12.26;90.34
65470;DHT22;52067;50.710;14.492;2022-09-14T00:32:00;12.40;89.47
65470;DHT22;52067;50.710;14.492;2022-09-14T00:34:26;12.54;89.14
65470;DHT22;52067;50.710;14.492;2022-09-14T00:36:51;12.67;88.64
65470;DHT22;52067;50.710;14.492;2022-09-14T00:39:19;12.57;88.53
65470;DHT22;52067;50.710;14.492;2022-09-14T00:41:46;12.67;88.65
65470;DHT22;52067;50.710;14.492;2022-09-14T00:46:44;12.23;90.08
65470;DHT22;52067;50.710;14.492;2022-09-14T00:51:42;12.10;90.02
65470;DHT22;52067;50.710;14.492;2022-09-14T00:54:09;12.02;90.28
65470;DHT22;52067;50.710;14.492;2022-09-14T00:56:34;12.05;90.29
65470;DHT22;52067;50.710;14.492;2022-09-14T00:59:12;12.22;90.13
65470;DHT22;52067;50.710;14.492;2022-09-14T01:01:42;12.25;89.59
65470;DHT22;52067;50.710;14.492;2022-09-14T01:04:08;12.38;89.64
65470;DHT22;52067;50.710;14.492;2022-09-14T01:06:57;12.57;89.04
65470;DHT22;52067;50.710;14.492;2022-09-14T01:09:38;12.53;88.74
65470;DHT22;52067;50.710;14.492;2022-09-14T01:14:59;12.51;88.56
65470;DHT22;52067;50.710;14.492;2022-09-14T01:17:31;12.68;88.30
65470;DHT22;52067;50.710;14.492;2022-09-14T01:20:03;12.75;88.00
65470;DHT22;52067;50.710;14.492;2022-09-14T01:25:42;12.73;88.30
65470;DHT22;52067;50.710;14.492;2022-09-14T01:28:25;12.75;88.24
65470;DHT22;52067;50.710;14.492;2022-09-14T01:30:55;12.50;88.99
65470;DHT22;52067;50.710;14.492;2022-09-14T01:33:29;12.13;89.88
65470;DHT22;52067;50.710;14.492;2022-09-14T01:35:57;12.10;90.38
65470;DHT22;52067;50.710;14.492;2022-09-14T01:38:30;12.34;89.76
65470;DHT22;52067;50.710;14.492;2022-09-14T01:40:58;12.46;89.48
65470;DHT22;52067;50.710;14.492;2022-09-14T01:43:29;12.58;88.84
65470;DHT22;52067;50.710;14.492;2022-09-14T01:46:03;12.51;89.18
65470;DHT22;52067;50.710;14.492;2022-09-14T01:48:33;12.57;88.97
65470;DHT22;52067;50.710;14.492;2022-09-14T01:51:04;12.16;90.14
65470;DHT22;52067;50.710;14.492;2022-09-14T01:53:46;12.15;90.44
65470;DHT22;52067;50.710;14.492;2022-09-14T01:56:17;12.34;90.14
65470;DHT22;52067;50.710;14.492;2022-09-14T02:01:42;12.37;89.36
65470;DHT22;52067;50.710;14.492;2022-09-14T02:04:11;12.29;90.31
65470;DHT22;52067;50.710;14.492;2022-09-14T02:06:40;12.41;89.56
65470;DHT22;52067;50.710;14.492;2022-09-14T02:09:09;12.44;89.45
65470;DHT22;52067;50.710;14.492;2022-09-14T02:11:35;12.48;89.44
65470;DHT22;52067;50.710;14.492;2022-09-14T02:14:02;12.46;89.08
65470;DHT22;52067;50.710;14.492;2022-09-14T02:16:27;12.41;89.03
65470;DHT22;52067;50.710;14.492;2022-09-14T02:18:53;12.37;88.84
65470;DHT22;52067;50.710;14.492;2022-09-14T02:21:21;12.46;88.70
65470;DHT22;52067;50.710;14.492;2022-09-14T02:23:47;12.46;88.38
65470;DHT22;52067;50.710;14.492;2022-09-14T02:26:14;12.36;88.82
65470;DHT22;52067;50.710;14.492;2022-09-14T02:28:39;12.32;88.81
65470;DHT22;52067;50.710;14.492;2022-09-14T02:36:50;12.33;89.12
65470;DHT22;52067;50.710;14.492;2022-09-14T02:53:00;11.82;92.31
65470;DHT22;52067;50.710;14.492;2022-09-14T02:55:29;11.95;91.68
65470;DHT22;52067;50.710;14.492;2022-09-14T03:00:29;11.89;91.37
65470;DHT22;52067;50.710;14.492;2022-09-14T03:02:55;11.92;91.47
65470;DHT22;52067;50.710;14.492;2022-09-14T03:05:21;12.17;91.15
65470;DHT22;52067;50.710;14.492;2022-09-14T03:07:46;12.19;90.98
65470;DHT22;52067;50.710;14.492;2022-09-14T03:10:12;12.44;90.86
65470;DHT22;52067;50.710;14.492;2022-09-14T03:12:38;12.58;90.25
65470;DHT22;52067;50.710;14.492;2022-09-14T03:15:04;12.71;90.31
65470;DHT22;52067;50.710;14.492;2022-09-14T03:17:30;12.88;90.12
65470;DHT22;52067;50.710;14.492;2022-09-14T03:19:55;13.01;89.64
65470;DHT22;52067;50.710;14.492;2022-09-14T03:22:21;13.04;89.21
65470;DHT22;52067;50.710;14.492;2022-09-14T03:24:46;13.11;89.27
65470;DHT22;52067;50.710;14.492;2022-09-14T03:27:12;13.04;88.95
65470;DHT22;52067;50.710;14.492;2022-09-14T03:29:37;13.05;88.66
65470;DHT22;52067;50.710;14.492;2022-09-14T03:32:02;13.02;89.06
65470;DHT22;52067;50.710;14.492;2022-09-14T03:34:28;13.18;88.64
65470;DHT22;52067;50.710;14.492;2022-09-14T03:36:53;13.25;88.38
65470;DHT22;52067;50.710;14.492;2022-09-14T03:39:18;13.32;88.37
65470;DHT22;52067;50.710;14.492;2022-09-14T03:41:44;13.01;89.20
65470;DHT22;52067;50.710;14.492;2022-09-14T03:44:09;13.05;89.30
65470;DHT22;52067;50.710;14.492;2022-09-14T03:46:35;13.15;89.11
65470;DHT22;52067;50.710;14.492;2022-09-14T03:49:00;12.98;89.68
65470;DHT22;52067;50.710;14.492;2022-09-14T03:51:25;13.26;89.39
65470;DHT22;52067;50.710;14.492;2022-09-14T03:53:51;13.39;88.98
65470;DHT22;52067;50.710;14.492;2022-09-14T03:56:18;13.44;88.62
65470;DHT22;52067;50.710;14.492;2022-09-14T03:58:45;13.32;88.73
65470;DHT22;52067;50.710;14.492;2022-09-14T04:01:13;13.06;89.79
65470;DHT22;52067;50.710;14.492;2022-09-14T04:03:39;13.26;89.38
65470;DHT22;52067;50.710;14.492;2022-09-14T04:06:05;13.02;89.86
65470;DHT22;52067;50.710;14.492;2022-09-14T04:08:33;13.20;89.59
65470;DHT22;52067;50.710;14.492;2022-09-14T04:10:58;13.35;89.30
65470;DHT22;52067;50.710;14.492;2022-09-14T04:13:24;13.27;89.14
65470;DHT22;52067;50.710;14.492;2022-09-14T04:15:59;13.43;88.84
65470;DHT22;52067;50.710;14.492;2022-09-14T04:18:25;13.40;88.95
65470;DHT22;52067;50.710;14.492;2022-09-14T04:20:58;13.44;89.23
65470;DHT22;52067;50.710;14.492;2022-09-14T04:23:24;13.53;88.92
65470;DHT22;52067;50.710;14.492;2022-09-14T04:25:51;13.54;89.02
65470;DHT22;52067;50.710;14.492;2022-09-14T04:28:16;13.74;88.63
65470;DHT22;52067;50.710;14.492;2022-09-14T04:30:42;13.84;88.13
65470;DHT22;52067;50.710;14.492;2022-09-14T04:33:07;13.81;88.36
65470;DHT22;52067;50.710;14.492;2022-09-14T04:35:32;13.62;89.26
65470;DHT22;52067;50.710;14.492;2022-09-14T04:37:58;13.74;88.49
65470;DHT22;52067;50.710;14.492;2022-09-14T04:40:23;13.87;88.26
65470;DHT22;52067;50.710;14.492;2022-09-14T04:42:49;13.80;88.93
65470;DHT22;52067;50.710;14.492;2022-09-14T04:45:14;13.83;88.78
65470;DHT22;52067;50.710;14.492;2022-09-14T04:47:40;13.81;88.51
65470;DHT22;52067;50.710;14.492;2022-09-14T04:50:06;13.71;89.01
65470;DHT22;52067;50.710;14.492;2022-09-14T04:52:31;13.88;88.67
65470;DHT22;52067;50.710;14.492;2022-09-14T04:54:57;13.73;89.09
65470;DHT22;52067;50.710;14.492;2022-09-14T04:57:22;13.81;88.96
65470;DHT22;52067;50.710;14.492;2022-09-14T04:59:47;13.52;89.30
65470;DHT22;52067;50.710;14.492;2022-09-14T05:02:13;13.46;89.99
65470;DHT22;52067;50.710;14.492;2022-09-14T05:04:38;13.25;90.84
65470;DHT22;52067;50.710;14.492;2022-09-14T05:07:04;13.32;90.70
65470;DHT22;52067;50.710;14.492;2022-09-14T05:09:29;13.30;90.90
65470;DHT22;52067;50.710;14.492;2022-09-14T05:11:55;13.33;91.05
65470;DHT22;52067;50.710;14.492;2022-09-14T05:14:20;13.42;91.04
65470;DHT22;52067;50.710;14.492;2022-09-14T05:16:45;13.43;90.50
65470;DHT22;52067;50.710;14.492;2022-09-14T05:19:14;13.36;91.02
65470;DHT22;52067;50.710;14.492;2022-09-14T05:21:42;13.38;90.85
65470;DHT22;52067;50.710;14.492;2022-09-14T05:24:13;13.33;90.77
65470;DHT22;52067;50.710;14.492;2022-09-14T05:26:39;13.40;90.85
65470;DHT22;52067;50.710;14.492;2022-09-14T05:29:05;13.52;90.64
65470;DHT22;52067;50.710;14.492;2022-09-14T05:31:31;13.75;90.14
65470;DHT22;52067;50.710;14.492;2022-09-14T05:33:57;13.93;89.64
65470;DHT22;52067;50.710;14.492;2022-09-14T05:36:23;14.11;89.23
65470;DHT22;52067;50.710;14.492;2022-09-14T05:38:49;14.28;88.67
65470;DHT22;52067;50.710;14.492;2022-09-14T05:41:15;14.35;88.33
65470;DHT22;52067;50.710;14.492;2022-09-14T05:43:41;14.28;88.37
65470;DHT22;52067;50.710;14.492;2022-09-14T05:46:10;14.08;89.43
65470;DHT22;52067;50.710;14.492;2022-09-14T05:48:37;14.11;89.31
65470;DHT22;52067;50.710;14.492;2022-09-14T05:51:14;14.12;89.08
65470;DHT22;52067;50.710;14.492;2022-09-14T05:53:40;14.14;89.26
65470;DHT22;52067;50.710;14.492;2022-09-14T05:56:08;14.20;89.09
65470;DHT22;52067;50.710;14.492;2022-09-14T05:58:34;14.08;89.19
65470;DHT22;52067;50.710;14.492;2022-09-14T06:01:12;14.33;88.89
65470;DHT22;52067;50.710;14.492;2022-09-14T06:03:38;14.49;88.10
65470;DHT22;52067;50.710;14.492;2022-09-14T06:06:05;14.53;87.98
65470;DHT22;52067;50.710;14.492;2022-09-14T06:08:31;14.60;87.61
65470;DHT22;52067;50.710;14.492;2022-09-14T06:11:02;14.35;88.42
65470;DHT22;52067;50.710;14.492;2022-09-14T06:13:28;14.32;88.75
65470;DHT22;52067;50.710;14.492;2022-09-14T06:15:53;14.17;89.32
65470;DHT22;52067;50.710;14.492;2022-09-14T06:18:20;14.25;89.06
65470;DHT22;52067;50.710;14.492;2022-09-14T06:20:50;14.33;89.08
65470;DHT22;52067;50.710;14.492;2022-09-14T06:23:16;14.41;88.96
65470;DHT22;52067;50.710;14.492;2022-09-14T06:25:41;14.66;88.62
65470;DHT22;52067;50.710;14.492;2022-09-14T06:28:07;14.87;88.17
65470;DHT22;52067;50.710;14.492;2022-09-14T06:30:33;14.66;88.51
65470;DHT22;52067;50.710;14.492;2022-09-14T06:32:58;14.42;88.97
65470;DHT22;52067;50.710;14.492;2022-09-14T06:35:24;14.46;88.93
65470;DHT22;52067;50.710;14.492;2022-09-14T06:37:51;14.62;88.82
65470;DHT22;52067;50.710;14.492;2022-09-14T06:40:17;14.79;88.42
65470;DHT22;52067;50.710;14.492;2022-09-14T06:42:42;14.68;88.73
65470;DHT22;52067;50.710;14.492;2022-09-14T06:45:08;14.77;88.88
65470;DHT22;52067;50.710;14.492;2022-09-14T06:47:33;14.87;88.38
65470;DHT22;52067;50.710;14.492;2022-09-14T06:49:59;14.97;87.80
65470;DHT22;52067;50.710;14.492;2022-09-14T06:52:24;15.06;87.82
65470;DHT22;52067;50.710;14.492;2022-09-14T06:54:49;15.16;87.62
65470;DHT22;52067;50.710;14.492;2022-09-14T06:57:15;15.26;87.11
65470;DHT22;52067;50.710;14.492;2022-09-14T06:59:40;15.24;87.19
65470;DHT22;52067;50.710;14.492;2022-09-14T07:02:05;15.31;86.91
65470;DHT22;52067;50.710;14.492;2022-09-14T07:04:31;15.39;86.72
65470;DHT22;52067;50.710;14.492;2022-09-14T07:06:56;15.45;86.53
65470;DHT22;52067;50.710;14.492;2022-09-14T07:09:22;15.42;86.28
65470;DHT22;52067;50.710;14.492;2022-09-14T07:11:47;14.87;87.90
65470;DHT22;52067;50.710;14.492;2022-09-14T07:14:13;15.11;88.11
65470;DHT22;52067;50.710;14.492;2022-09-14T07:16:39;15.39;87.64
65470;DHT22;52067;50.710;14.492;2022-09-14T07:19:13;15.23;88.29
65470;DHT22;52067;50.710;14.492;2022-09-14T07:21:39;15.23;87.80
65470;DHT22;52067;50.710;14.492;2022-09-14T07:24:04;15.14;88.24
65470;DHT22;52067;50.710;14.492;2022-09-14T07:26:37;15.04;90.10
65470;DHT22;52067;50.710;14.492;2022-09-14T07:29:10;15.03;89.52
65470;DHT22;52067;50.710;14.492;2022-09-14T07:31:39;15.04;89.27
65470;DHT22;52067;50.710;14.492;2022-09-14T07:34:05;15.17;89.36
65470;DHT22;52067;50.710;14.492;2022-09-14T07:36:33;15.17;89.01
65470;DHT22;52067;50.710;14.492;2022-09-14T07:38:59;15.47;88.34
65470;DHT22;52067;50.710;14.492;2022-09-14T07:41:26;15.55;87.69
65470;DHT22;52067;50.710;14.492;2022-09-14T07:43:56;15.38;87.72
65470;DHT22;52067;50.710;14.492;2022-09-14T07:46:25;15.49;88.11
65470;DHT22;52067;50.710;14.492;2022-09-14T07:48:55;15.45;88.11
65470;DHT22;52067;50.710;14.492;2022-09-14T07:51:21;15.37;88.82
65470;DHT22;52067;50.710;14.492;2022-09-14T07:53:48;15.32;89.06
65470;DHT22;52067;50.710;14.492;2022-09-14T07:56:14;15.44;89.12
65470;DHT22;52067;50.710;14.492;2022-09-14T07:58:41;15.51;89.14
65470;DHT22;52067;50.710;14.492;2022-09-14T08:01:08;15.54;88.67
65470;DHT22;52067;50.710;14.492;2022-09-14T08:03:36;15.62;88.51
65470;DHT22;52067;50.710;14.492;2022-09-14T08:06:05;15.62;88.32
65470;DHT22;52067;50.710;14.492;2022-09-14T08:08:34;15.63;89.03
65470;DHT22;52067;50.710;14.492;2022-09-14T08:11:12;15.70;88.12
65470;DHT22;52067;50.710;14.492;2022-09-14T08:13:43;15.90;88.15
65470;DHT22;52067;50.710;14.492;2022-09-14T08:16:10;15.95;87.87
65470;DHT22;52067;50.710;14.492;2022-09-14T08:18:36;15.95;88.14
65470;DHT22;52067;50.710;14.492;2022-09-14T08:21:03;15.95;87.88
65470;DHT22;52067;50.710;14.492;2022-09-14T08:23:29;15.96;87.50
65470;DHT22;52067;50.710;14.492;2022-09-14T08:25:54;16.03;87.46
65470;DHT22;52067;50.710;14.492;2022-09-14T08:28:20;16.13;87.06
65470;DHT22;52067;50.710;14.492;2022-09-14T08:30:46;16.24;86.91
65470;DHT22;52067;50.710;14.492;2022-09-14T08:33:11;16.17;86.91
65470;DHT22;52067;50.710;14.492;2022-09-14T08:35:43;16.18;86.73
65470;DHT22;52067;50.710;14.492;2022-09-14T08:38:09;16.30;86.61
65470;DHT22;52067;50.710;14.492;2022-09-14T08:40:42;16.33;86.24
65470;DHT22;52067;50.710;14.492;2022-09-14T08:43:08;16.24;86.26
65470;DHT22;52067;50.710;14.492;2022-09-14T08:45:35;16.47;85.92
65470;DHT22;52067;50.710;14.492;2022-09-14T08:48:01;16.48;86.19
65470;DHT22;52067;50.710;14.492;2022-09-14T08:50:27;16.47;85.73
65470;DHT22;52067;50.710;14.492;2022-09-14T08:52:54;16.41;85.82
65470;DHT22;52067;50.710;14.492;2022-09-14T08:55:37;16.43;85.92
65470;DHT22;52067;50.710;14.492;2022-09-14T09:00:45;16.03;87.21
65470;DHT22;52067;50.710;14.492;2022-09-14T09:06:02;16.43;86.63
65470;DHT22;52067;50.710;14.492;2022-09-14T09:10:59;16.58;85.76
65470;DHT22;52067;50.710;14.492;2022-09-14T09:13:28;16.72;85.48
65470;DHT22;52067;50.710;14.492;2022-09-14T09:16:01;16.68;85.62
65470;DHT22;52067;50.710;14.492;2022-09-14T09:18:40;16.84;85.42
65470;DHT22;52067;50.710;14.492;2022-09-14T09:21:40;16.74;85.64
65470;DHT22;52067;50.710;14.492;2022-09-14T09:24:54;16.81;85.29
65470;DHT22;52067;50.710;14.492;2022-09-14T09:27:14;16.86;84.79
65470;DHT22;52067;50.710;14.492;2022-09-14T09:29:40;16.99;85.03
65470;DHT22;52067;50.710;14.492;2022-09-14T09:32:09;16.91;85.51
65470;DHT22;52067;50.710;14.492;2022-09-14T09:34:36;16.86;85.90
65470;DHT22;52067;50.710;14.492;2022-09-14T09:37:02;16.67;85.63
65470;DHT22;52067;50.710;14.492;2022-09-14T09:39:32;16.84;85.56
65470;DHT22;52067;50.710;14.492;2022-09-14T09:42:06;16.54;86.67
65470;DHT22;52067;50.710;14.492;2022-09-14T09:47:40;16.10;88.64
65470;DHT22;52067;50.710;14.492;2022-09-14T09:52:47;16.60;87.32
65470;DHT22;52067;50.710;14.492;2022-09-14T09:55:18;16.72;86.85
65470;DHT22;52067;50.710;14.492;2022-09-14T09:57:44;16.60;87.21
65470;DHT22;52067;50.710;14.492;2022-09-14T10:00:22;16.65;87.08
65470;DHT22;52067;50.710;14.492;2022-09-14T10:02:49;16.50;87.70
65470;DHT22;52067;50.710;14.492;2022-09-14T10:05:29;16.71;86.84
65470;DHT22;52067;50.710;14.492;2022-09-14T10:08:01;16.75;86.72
65470;DHT22;52067;50.710;14.492;2022-09-14T10:12:59;16.33;88.42
65470;DHT22;52067;50.710;14.492;2022-09-14T10:15:27;16.53;88.24
65470;DHT22;52067;50.710;14.492;2022-09-14T10:20:32;16.44;89.09
65470;DHT22;52067;50.710;14.492;2022-09-14T10:25:39;16.63;88.80
65470;DHT22;52067;50.710;14.492;2022-09-14T10:28:15;16.89;87.97
65470;DHT22;52067;50.710;14.492;2022-09-14T10:30:45;16.78;88.60
65470;DHT22;52067;50.710;14.492;2022-09-14T10:33:14;16.98;87.49
65470;DHT22;52067;50.710;14.492;2022-09-14T10:36:17;17.06;87.31
65470;DHT22;52067;50.710;14.492;2022-09-14T10:39:11;17.20;86.96
65470;DHT22;52067;50.710;14.492;2022-09-14T10:41:51;17.42;86.23
65470;DHT22;52067;50.710;14.492;2022-09-14T10:55:30;16.81;88.13
65470;DHT22;52067;50.710;14.492;2022-09-14T11:09:42;17.43;86.87
65470;DHT22;52067;50.710;14.492;2022-09-14T11:12:13;17.12;86.91
65470;DHT22;52067;50.710;14.492;2022-09-14T11:25:33;16.94;88.99
65470;DHT22;52067;50.710;14.492;2022-09-14T11:28:05;17.13;89.12
65470;DHT22;52067;50.710;14.492;2022-09-14T11:30:40;17.29;88.63
65470;DHT22;52067;50.710;14.492;2022-09-14T11:33:16;17.42;88.48
65470;DHT22;52067;50.710;14.492;2022-09-14T11:35:47;17.46;87.85
65470;DHT22;52067;50.710;14.492;2022-09-14T11:38:18;17.47;87.66
65470;DHT22;52067;50.710;14.492;2022-09-14T11:41:01;17.61;87.45
65470;DHT22;52067;50.710;14.492;2022-09-14T11:46:24;17.26;87.99
65470;DHT22;52067;50.710;14.492;2022-09-14T11:49:00;17.33;88.98
65470;DHT22;52067;50.710;14.492;2022-09-14T11:51:36;17.51;88.42
65470;DHT22;52067;50.710;14.492;2022-09-14T11:54:10;17.44;89.05
65470;DHT22;52067;50.710;14.492;2022-09-14T11:56:37;17.18;88.63
65470;DHT22;52067;50.710;14.492;2022-09-14T11:59:05;17.75;87.56
65470;DHT22;52067;50.710;14.492;2022-09-14T12:01:38;17.85;86.77
65470;DHT22;52067;50.710;14.492;2022-09-14T12:04:17;17.37;87.98
65470;DHT22;52067;50.710;14.492;2022-09-14T12:06:51;17.73;87.74
65470;DHT22;52067;50.710;14.492;2022-09-14T12:11:49;17.34;89.16
65470;DHT22;52067;50.710;14.492;2022-09-14T12:17:24;17.23;89.49
65470;DHT22;52067;50.710;14.492;2022-09-14T12:19:52;17.47;88.76
65470;DHT22;52067;50.710;14.492;2022-09-14T12:22:31;17.44;88.61
65470;DHT22;52067;50.710;14.492;2022-09-14T12:25:18;17.64;88.33
65470;DHT22;52067;50.710;14.492;2022-09-14T12:27:46;17.77;88.12
65470;DHT22;52067;50.710;14.492;2022-09-14T12:33:00;17.51;89.61
65470;DHT22;52067;50.710;14.492;2022-09-14T12:40:50;17.77;88.51
65470;DHT22;52067;50.710;14.492;2022-09-14T12:56:59;17.47;89.70
65470;DHT22;52067;50.710;14.492;2022-09-14T12:59:32;17.74;88.99
65470;DHT22;52067;50.710;14.492;2022-09-14T13:04:43;17.64;89.38
65470;DHT22;52067;50.710;14.492;2022-09-14T13:07:14;17.69;88.45
65470;DHT22;52067;50.710;14.492;2022-09-14T13:09:59;17.74;88.78
65470;DHT22;52067;50.710;14.492;2022-09-14T13:15:00;17.97;87.95
65470;DHT22;52067;50.710;14.492;2022-09-14T13:17:26;17.97;88.09
65470;DHT22;52067;50.710;14.492;2022-09-14T13:20:15;17.81;88.91
65470;DHT22;52067;50.710;14.492;2022-09-14T13:22:42;18.09;87.47
65470;DHT22;52067;50.710;14.492;2022-09-14T13:25:24;18.11;87.56
65470;DHT22;52067;50.710;14.492;2022-09-14T13:27:51;18.09;87.23
65470;DHT22;52067;50.710;14.492;2022-09-14T13:30:22;18.18;87.04
65470;DHT22;52067;50.710;14.492;2022-09-14T13:32:53;18.09;87.34
65470;DHT22;52067;50.710;14.492;2022-09-14T13:37:55;18.24;87.14
65470;DHT22;52067;50.710;14.492;2022-09-14T13:40:24;18.25;86.97
65470;DHT22;52067;50.710;14.492;2022-09-14T13:42:52;17.98;86.78
65470;DHT22;52067;50.710;14.492;2022-09-14T13:45:17;18.16;87.31
65470;DHT22;52067;50.710;14.492;2022-09-14T13:47:43;18.16;87.55
65470;DHT22;52067;50.710;14.492;2022-09-14T13:50:11;18.18;87.34
65470;DHT22;52067;50.710;14.492;2022-09-14T13:52:39;18.16;87.23
65470;DHT22;52067;50.710;14.492;2022-09-14T13:55:22;17.77;88.67
65470;DHT22;52067;50.710;14.492;2022-09-14T14:00:30;17.82;89.22
65470;DHT22;52067;50.710;14.492;2022-09-14T14:03:03;18.08;88.58
65470;DHT22;52067;50.710;14.492;2022-09-14T14:08:00;17.77;88.71
65470;DHT22;52067;50.710;14.492;2022-09-14T14:12:54;17.98;88.09
65470;DHT22;52067;50.710;14.492;2022-09-14T14:17:45;18.18;87.66
65470;DHT22;52067;50.710;14.492;2022-09-14T14:22:56;18.28;86.96
65470;DHT22;52067;50.710;14.492;2022-09-14T14:25:43;18.25;87.25
65470;DHT22;52067;50.710;14.492;2022-09-14T14:28:18;18.24;87.20
65470;DHT22;52067;50.710;14.492;2022-09-14T14:30:46;18.16;87.14
65470;DHT22;52067;50.710;14.492;2022-09-14T14:33:14;18.22;87.13
65470;DHT22;52067;50.710;14.492;2022-09-14T14:35:42;18.18;87.31
65470;DHT22;52067;50.710;14.492;2022-09-14T14:38:08;18.22;87.26
65470;DHT22;52067;50.710;14.492;2022-09-14T14:40:34;18.32;86.98
65470;DHT22;52067;50.710;14.492;2022-09-14T14:43:00;18.06;87.73
65470;DHT22;52067;50.710;14.492;2022-09-14T14:45:29;18.33;87.24
65470;DHT22;52067;50.710;14.492;2022-09-14T14:47:56;18.31;87.66
65470;DHT22;52067;50.710;14.492;2022-09-14T14:52:48;18.09;88.35
65470;DHT22;52067;50.710;14.492;2022-09-14T14:55:14;18.31;87.41
65470;DHT22;52067;50.710;14.492;2022-09-14T14:57:40;18.21;87.46
65470;DHT22;52067;50.710;14.492;2022-09-14T15:00:11;18.35;87.59
65470;DHT22;52067;50.710;14.492;2022-09-14T15:02:38;18.31;87.39
65470;DHT22;52067;50.710;14.492;2022-09-14T15:05:03;18.15;87.88
65470;DHT22;52067;50.710;14.492;2022-09-14T15:07:28;18.25;88.06
65470;DHT22;52067;50.710;14.492;2022-09-14T15:09:56;18.04;88.94
65470;DHT22;52067;50.710;14.492;2022-09-14T15:12:21;18.00;89.04
65470;DHT22;52067;50.710;14.492;2022-09-14T15:14:47;17.81;89.51
65470;DHT22;52067;50.710;14.492;2022-09-14T15:17:12;17.84;89.75
65470;DHT22;52067;50.710;14.492;2022-09-14T15:19:38;17.97;89.44
65470;DHT22;52067;50.710;14.492;2022-09-14T15:22:03;18.01;89.29
65470;DHT22;52067;50.710;14.492;2022-09-14T15:24:28;18.08;89.11
65470;DHT22;52067;50.710;14.492;2022-09-14T15:26:54;17.95;89.28
65470;DHT22;52067;50.710;14.492;2022-09-14T15:29:20;17.84;89.71
65470;DHT22;52067;50.710;14.492;2022-09-14T15:31:45;17.82;90.06
65470;DHT22;52067;50.710;14.492;2022-09-14T15:34:10;17.78;89.81
65470;DHT22;52067;50.710;14.492;2022-09-14T15:36:49;18.01;89.25
65470;DHT22;52067;50.710;14.492;2022-09-14T15:39:16;18.13;88.60
65470;DHT22;52067;50.710;14.492;2022-09-14T15:41:42;18.12;88.45
65470;DHT22;52067;50.710;14.492;2022-09-14T15:44:08;18.16;88.54
65470;DHT22;52067;50.710;14.492;2022-09-14T15:46:36;18.11;89.16
65470;DHT22;52067;50.710;14.492;2022-09-14T15:49:04;18.09;89.12
65470;DHT22;52067;50.710;14.492;2022-09-14T15:51:30;18.06;89.51
65470;DHT22;52067;50.710;14.492;2022-09-14T15:53:58;18.00;89.29
65470;DHT22;52067;50.710;14.492;2022-09-14T15:56:24;17.88;89.42
65470;DHT22;52067;50.710;14.492;2022-09-14T15:58:49;17.98;89.26
65470;DHT22;52067;50.710;14.492;2022-09-14T16:01:16;17.74;89.61
65470;DHT22;52067;50.710;14.492;2022-09-14T16:03:42;17.81;89.80
65470;DHT22;52067;50.710;14.492;2022-09-14T16:06:08;17.80;89.84
65470;DHT22;52067;50.710;14.492;2022-09-14T16:08:35;17.73;90.06
65470;DHT22;52067;50.710;14.492;2022-09-14T16:11:02;17.90;89.86
65470;DHT22;52067;50.710;14.492;2022-09-14T16:13:27;17.91;89.67
65470;DHT22;52067;50.710;14.492;2022-09-14T16:16:03;18.05;89.45
65470;DHT22;52067;50.710;14.492;2022-09-14T16:18:28;17.92;89.54
65470;DHT22;52067;50.710;14.492;2022-09-14T16:20:54;17.80;89.97
65470;DHT22;52067;50.710;14.492;2022-09-14T16:23:19;17.90;89.82
65470;DHT22;52067;50.710;14.492;2022-09-14T16:25:44;17.87;89.64
65470;DHT22;52067;50.710;14.492;2022-09-14T16:28:10;17.63;90.65
65470;DHT22;52067;50.710;14.492;2022-09-14T16:30:35;17.42;91.51
65470;DHT22;52067;50.710;14.492;2022-09-14T16:33:00;17.54;91.45
65470;DHT22;52067;50.710;14.492;2022-09-14T16:35:26;17.64;90.97
65470;DHT22;52067;50.710;14.492;2022-09-14T16:37:51;17.70;90.60
65470;DHT22;52067;50.710;14.492;2022-09-14T16:40:16;17.71;90.43
65470;DHT22;52067;50.710;14.492;2022-09-14T16:42:42;17.61;90.43
65470;DHT22;52067;50.710;14.492;2022-09-14T16:45:09;17.51;91.02
65470;DHT22;52067;50.710;14.492;2022-09-14T16:47:35;17.40;91.31
65470;DHT22;52067;50.710;14.492;2022-09-14T16:50:00;17.44;91.25
65470;DHT22;52067;50.710;14.492;2022-09-14T16:52:25;17.44;90.98
65470;DHT22;52067;50.710;14.492;2022-09-14T16:54:52;17.36;91.29
65470;DHT22;52067;50.710;14.492;2022-09-14T16:57:18;17.53;91.05
65470;DHT22;52067;50.710;14.492;2022-09-14T16:59:43;17.66;90.65
65470;DHT22;52067;50.710;14.492;2022-09-14T17:02:09;17.71;90.37
65470;DHT22;52067;50.710;14.492;2022-09-14T17:04:35;17.57;90.46
65470;DHT22;52067;50.710;14.492;2022-09-14T17:07:01;17.70;90.20
65470;DHT22;52067;50.710;14.492;2022-09-14T17:09:28;17.69;90.06
65470;DHT22;52067;50.710;14.492;2022-09-14T17:11:55;17.69;90.06
65470;DHT22;52067;50.710;14.492;2022-09-14T17:14:24;17.75;89.81
65470;DHT22;52067;50.710;14.492;2022-09-14T17:16:50;17.54;90.65
65470;DHT22;52067;50.710;14.492;2022-09-14T17:19:16;17.66;90.25
65470;DHT22;52067;50.710;14.492;2022-09-14T17:21:42;17.57;90.25
65470;DHT22;52067;50.710;14.492;2022-09-14T17:24:09;17.55;90.53
65470;DHT22;52067;50.710;14.492;2022-09-14T17:26:35;17.74;90.13
65470;DHT22;52067;50.710;14.492;2022-09-14T17:29:01;17.71;89.93
65470;DHT22;52067;50.710;14.492;2022-09-14T17:31:29;17.75;89.91
65470;DHT22;52067;50.710;14.492;2022-09-14T17:33:56;17.81;89.60
65470;DHT22;52067;50.710;14.492;2022-09-14T17:36:22;17.87;89.40
65470;DHT22;52067;50.710;14.492;2022-09-14T17:38:48;17.66;89.76
65470;DHT22;52067;50.710;14.492;2022-09-14T17:41:19;17.57;90.55
65470;DHT22;52067;50.710;14.492;2022-09-14T17:43:50;17.44;90.86
65470;DHT22;52067;50.710;14.492;2022-09-14T17:46:15;17.60;90.44